createdAt,value
2023-03-28T00:00:19.691Z,100951.81
2023-03-28T00:02:46.592Z,100952.88
2023-03-28T00:05:13.835Z,100963.88
2023-03-28T00:08:06.721Z,100967.91
2023-03-28T00:10:33.814Z,100974.94
2023-03-28T00:13:00.599Z,100973.78
2023-03-28T00:15:28.681Z,100983.44
2023-03-28T00:17:55.459Z,100975.84
2023-03-28T00:20:22.314Z,100969.22
2023-03-28T00:22:51.540Z,100963.16
2023-03-28T00:25:18.383Z,100965.41
2023-03-28T00:27:45.124Z,100977.28
2023-03-28T00:30:12.485Z,100981.50
2023-03-28T00:32:45.616Z,100983.91
2023-03-28T00:35:15.996Z,100981.78
2023-03-28T00:37:54.588Z,100990.34
2023-03-28T00:40:22.050Z,100990.16
2023-03-28T00:42:48.821Z,100995.44
2023-03-28T00:45:15.498Z,100999.19
2023-03-28T00:48:15.223Z,101001.56
2023-03-28T00:50:52.466Z,100995.94
2023-03-28T00:53:21.621Z,101000.84
2023-03-28T00:56:08.977Z,101001.44
2023-03-28T00:58:41.483Z,101000.25
2023-03-28T01:01:11.152Z,100998.38
2023-03-28T01:03:41.475Z,101000.00
2023-03-28T01:06:09.501Z,101002.59
2023-03-28T01:08:40.801Z,100991.72
2023-03-28T01:11:11.560Z,101000.72
2023-03-28T01:13:42.616Z,101013.56
2023-03-28T01:16:10.711Z,101014.06
2023-03-28T01:18:41.481Z,101014.38
2023-03-28T01:21:14.358Z,101019.16
2023-03-28T01:24:29.149Z,101022.69
2023-03-28T01:27:29.761Z,101028.84
2023-03-28T01:30:42.906Z,101028.75
2023-03-28T01:33:58.769Z,101029.50
2023-03-28T01:36:49.805Z,101030.72
2023-03-28T01:39:35.176Z,101035.88
2023-03-28T01:42:11.423Z,101031.97
2023-03-28T01:44:41.465Z,101033.44
2023-03-28T01:47:19.858Z,101030.78
2023-03-28T01:50:03.468Z,101033.31
2023-03-28T01:53:08.786Z,101030.72
2023-03-28T01:55:41.552Z,101034.91
2023-03-28T01:58:46.503Z,101036.22
2023-03-28T02:01:27.655Z,101032.59
2023-03-28T02:04:01.034Z,101035.19
2023-03-28T02:06:51.640Z,101027.31
2023-03-28T02:09:26.059Z,101032.84
2023-03-28T02:12:09.502Z,101032.00
2023-03-28T02:14:58.296Z,101036.91
2023-03-28T02:17:52.032Z,101032.31
2023-03-28T02:20:46.595Z,101031.47
2023-03-28T02:23:20.301Z,101029.34
2023-03-28T02:26:07.543Z,101036.44
2023-03-28T02:28:57.986Z,101031.34
2023-03-28T02:31:37.190Z,101029.34
2023-03-28T02:34:04.032Z,101018.66
2023-03-28T02:36:58.881Z,101022.31
2023-03-28T02:39:30.261Z,101025.56
2023-03-28T02:42:21.792Z,101025.22
2023-03-28T02:45:07.126Z,101038.84
2023-03-28T02:48:07.712Z,101038.75
2023-03-28T02:50:36.240Z,101036.41
2023-03-28T02:53:02.840Z,101038.34
2023-03-28T02:55:54.528Z,101048.66
2023-03-28T02:59:02.043Z,101048.66
2023-03-28T03:01:32.087Z,101044.34
2023-03-28T03:04:07.295Z,101052.47
2023-03-28T03:06:35.290Z,101054.34
2023-03-28T03:09:02.325Z,101051.25
2023-03-28T03:11:29.023Z,101053.75
2023-03-28T03:13:57.541Z,101049.63
2023-03-28T03:16:29.381Z,101045.81
2023-03-28T03:18:57.703Z,101046.41
2023-03-28T03:21:25.413Z,101049.91
2023-03-28T03:23:56.889Z,101049.13
2023-03-28T03:26:24.017Z,101048.94
2023-03-28T03:29:00.726Z,101049.31
2023-03-28T03:31:27.850Z,101051.50
2023-03-28T03:34:20.151Z,101054.25
2023-03-28T03:36:56.360Z,101051.75
2023-03-28T03:39:23.672Z,101048.75
2023-03-28T03:41:52.432Z,101055.41
2023-03-28T03:44:46.250Z,101047.81
2023-03-28T03:47:15.021Z,101050.72
2023-03-28T03:49:41.935Z,101048.59
2023-03-28T03:52:08.565Z,101063.91
2023-03-28T03:54:38.437Z,101059.75
2023-03-28T03:57:05.824Z,101065.09
2023-03-28T03:59:32.832Z,101062.31
2023-03-28T04:02:00.026Z,101063.50
2023-03-28T04:04:53.654Z,101068.19
2023-03-28T04:07:26.966Z,101072.19
2023-03-28T04:09:56.900Z,101066.56
2023-03-28T04:12:29.097Z,101062.72
2023-03-28T04:14:56.348Z,101068.94
2023-03-28T04:17:34.454Z,101073.41
2023-03-28T04:20:22.449Z,101070.44
2023-03-28T04:23:33.950Z,101071.72
2023-03-28T04:26:08.840Z,101059.38
2023-03-28T04:29:12.426Z,101074.75
2023-03-28T04:31:49.762Z,101078.91
2023-03-28T04:34:54.910Z,101081.91
2023-03-28T04:37:21.588Z,101086.47
2023-03-28T04:39:54.078Z,101091.03
2023-03-28T04:42:29.247Z,101087.19
2023-03-28T04:45:18.077Z,101086.22
2023-03-28T04:47:46.322Z,101100.50
2023-03-28T04:50:18.276Z,101102.06
2023-03-28T04:52:45.734Z,101102.06
2023-03-28T04:55:16.150Z,101106.75
2023-03-28T04:57:43.949Z,101108.78
2023-03-28T05:00:17.113Z,101110.34
2023-03-28T05:03:14.291Z,101107.44
2023-03-28T05:05:55.202Z,101108.63
2023-03-28T05:08:43.853Z,101115.00
2023-03-28T05:11:36.342Z,101110.22
2023-03-28T05:14:03.179Z,101116.44
2023-03-28T05:16:45.015Z,101130.22
2023-03-28T05:19:27.130Z,101141.28
2023-03-28T05:22:31.820Z,101137.81
2023-03-28T05:25:03.235Z,101140.31
2023-03-28T05:27:49.446Z,101143.31
2023-03-28T05:30:22.771Z,101136.84
2023-03-28T05:32:52.957Z,101144.50
2023-03-28T05:35:20.444Z,101139.63
2023-03-28T05:38:14.383Z,101154.72
2023-03-28T05:40:42.625Z,101160.00
2023-03-28T05:43:09.441Z,101156.19
2023-03-28T05:45:38.673Z,101163.94
2023-03-28T05:48:21.780Z,101169.59
2023-03-28T05:51:06.998Z,101165.88
2023-03-28T05:53:37.984Z,101171.53
2023-03-28T05:56:06.458Z,101164.44
2023-03-28T05:58:36.520Z,101167.78
2023-03-28T06:01:12.866Z,101169.47
2023-03-28T06:06:57.258Z,101178.97
2023-03-28T06:09:25.866Z,101174.53
2023-03-28T06:12:06.744Z,101173.50
2023-03-28T06:14:35.316Z,101180.09
2023-03-28T06:17:09.544Z,101174.94
2023-03-28T06:20:38.680Z,101177.47
2023-03-28T06:23:12.298Z,101183.13
2023-03-28T06:29:57.635Z,101180.50
2023-03-28T06:32:33.083Z,101193.00
2023-03-28T06:35:05.799Z,101188.97
2023-03-28T06:37:39.332Z,101191.63
2023-03-28T06:40:17.713Z,101194.59
2023-03-28T07:03:21.579Z,101219.09
2023-03-28T07:05:48.696Z,101211.53
2023-03-28T07:08:17.164Z,101217.09
2023-03-28T07:10:57.675Z,101216.22
2023-03-28T07:42:46.138Z,101248.78
2023-03-28T07:45:12.915Z,101247.78
2023-03-28T07:47:57.468Z,101248.72
2023-03-28T07:50:30.729Z,101254.00
2023-03-28T07:56:10.569Z,101252.75
2023-03-28T07:58:53.899Z,101256.75
2023-03-28T08:01:27.325Z,101258.56
2023-03-28T08:03:59.655Z,101267.41
2023-03-28T08:07:02.397Z,101266.81
2023-03-28T08:09:40.607Z,101273.09
2023-03-28T08:12:48.709Z,101267.97
2023-03-28T08:15:15.540Z,101279.06
2023-03-28T08:18:08.456Z,101279.47
2023-03-28T08:20:37.030Z,101276.03
2023-03-28T08:23:35.479Z,101276.44
2023-03-28T08:26:21.965Z,101272.59
2023-03-28T08:28:54.768Z,101284.56
2023-03-28T08:31:26.812Z,101286.13
2023-03-28T08:33:59.644Z,101288.34
2023-03-28T08:36:32.538Z,101292.69
2023-03-28T08:39:00.850Z,101290.88
2023-03-28T08:42:23.500Z,101289.50
2023-03-28T08:44:57.710Z,101299.19
2023-03-28T08:47:53.376Z,101294.03
2023-03-28T08:50:40.278Z,101295.53
2023-03-28T08:53:24.154Z,101290.84
2023-03-28T08:55:53.693Z,101282.31
2023-03-28T08:58:23.314Z,101286.25
2023-03-28T09:00:53.656Z,101284.84
2023-03-28T09:03:22.496Z,101291.91
2023-03-28T09:06:08.126Z,101287.72
2023-03-28T09:08:44.956Z,101289.00
2023-03-28T09:11:29.104Z,101297.94
2023-03-28T09:14:40.939Z,101295.91
2023-03-28T09:17:35.185Z,101296.13
2023-03-28T09:20:44.164Z,101286.47
2023-03-28T09:23:40.052Z,101276.91
2023-03-28T09:26:36.354Z,101268.88
2023-03-28T09:29:13.805Z,101273.78
2023-03-28T09:31:44.510Z,101281.06
2023-03-28T09:34:30.573Z,101275.09
2023-03-28T09:40:36.568Z,101282.69
2023-03-28T09:44:02.866Z,101284.72
2023-03-28T09:46:43.393Z,101285.81
2023-03-28T09:49:26.202Z,101285.78
2023-03-28T09:51:57.167Z,101285.31
2023-03-28T10:19:11.563Z,101276.84
2023-03-28T10:21:56.804Z,101283.84
2023-03-28T10:24:27.281Z,101289.91
2023-03-28T10:27:07.712Z,101289.56
2023-03-28T10:29:44.755Z,101284.81
2023-03-28T10:32:14.443Z,101273.75
2023-03-28T10:35:25.797Z,101259.31
2023-03-28T10:38:04.988Z,101266.25
2023-03-28T10:41:26.164Z,101271.47
2023-03-28T10:44:32.571Z,101262.09
2023-03-28T10:47:06.298Z,101260.63
2023-03-28T10:49:51.454Z,101276.31
2023-03-28T10:52:25.899Z,101272.44
2023-03-28T10:55:17.173Z,101266.31
2023-03-28T10:58:10.984Z,101260.34
2023-03-28T11:01:20.399Z,101273.75
2023-03-28T11:04:05.014Z,101272.19
2023-03-28T11:06:50.910Z,101273.06
2023-03-28T11:09:28.904Z,101273.63
2023-03-28T11:12:43.861Z,101271.41
2023-03-28T11:15:41.232Z,101276.00
2023-03-28T11:18:40.817Z,101267.63
2023-03-28T11:21:39.164Z,101265.34
2023-03-28T11:24:39.839Z,101270.19
2023-03-28T11:27:44.852Z,101271.75
2023-03-28T11:30:33.370Z,101267.56
2023-03-28T11:33:26.164Z,101268.47
2023-03-28T11:36:07.533Z,101262.00
2023-03-28T11:38:48.847Z,101266.22
2023-03-28T11:41:30.007Z,101263.28
2023-03-28T11:44:39.134Z,101246.06
2023-03-28T11:47:12.258Z,101258.22
2023-03-28T11:50:38.546Z,101261.06
2023-03-28T11:53:16.599Z,101250.00
2023-03-28T11:56:46.287Z,101248.00
2023-03-28T11:59:39.255Z,101249.06
2023-03-28T12:03:20.897Z,101248.28
2023-03-28T12:07:02.522Z,101237.69
2023-03-28T12:10:16.717Z,101228.75
2023-03-28T12:13:41.667Z,101225.78
2023-03-28T12:16:20.451Z,101224.56
2023-03-28T12:18:51.479Z,101218.28
2023-03-28T12:21:46.040Z,101205.72
2023-03-28T12:24:47.700Z,101208.53
2023-03-28T12:30:43.357Z,101194.34
2023-03-28T12:33:11.845Z,101204.06
2023-03-28T12:40:36.339Z,101187.03
2023-03-28T12:43:34.061Z,101188.75
2023-03-28T12:46:04.538Z,101199.81
2023-03-28T12:48:46.220Z,101185.06
2023-03-28T12:51:30.321Z,101185.88
2023-03-28T12:54:37.128Z,101176.53
2023-03-28T12:57:14.163Z,101182.88
2023-03-28T13:00:16.859Z,101178.00
2023-03-28T13:07:57.296Z,101157.47
2023-03-28T13:10:27.640Z,101171.22
2023-03-28T13:13:45.740Z,101144.50
2023-03-28T13:16:45.610Z,101154.41
2023-03-28T13:19:16.488Z,101153.03
2023-03-28T13:21:56.568Z,101145.41
2023-03-28T13:29:27.237Z,101152.69
2023-03-28T13:32:17.774Z,101142.97
2023-03-28T13:35:35.652Z,101138.47
2023-03-28T13:42:35.484Z,101129.31
2023-03-28T13:45:21.881Z,101132.94
2023-03-28T13:48:13.192Z,101129.19
2023-03-28T13:50:40.792Z,101120.13
2023-03-28T13:53:07.563Z,101118.75
2023-03-28T13:55:34.299Z,101115.44
2023-03-28T13:58:12.463Z,101122.22
2023-03-28T14:00:39.458Z,101112.63
2023-03-28T14:03:14.435Z,101102.28
2023-03-28T14:12:58.328Z,101094.94
2023-03-28T14:15:30.097Z,101093.63
2023-03-28T14:17:58.811Z,101084.81
2023-03-28T14:20:26.464Z,101075.94
2023-03-28T14:23:00.520Z,101076.78
2023-03-28T14:25:28.869Z,101072.75
2023-03-28T14:27:56.987Z,101079.13
2023-03-28T14:30:26.140Z,101068.09
2023-03-28T14:32:59.161Z,101066.09
2023-03-28T14:35:30.799Z,101061.44
2023-03-28T14:38:03.005Z,101056.28
2023-03-28T14:40:32.722Z,101043.16
2023-03-28T14:43:02.131Z,101040.75
2023-03-28T14:45:29.557Z,101023.59
2023-03-28T14:48:00.380Z,101034.09
2023-03-28T14:50:33.032Z,101026.72
2023-03-28T14:53:18.157Z,101031.28
2023-03-28T14:56:13.188Z,101031.44
2023-03-28T14:58:42.485Z,101016.75
2023-03-28T15:01:11.472Z,101014.09
2023-03-28T15:03:46.538Z,101009.94
2023-03-28T15:06:15.567Z,101011.25
2023-03-28T15:08:44.516Z,101002.22
2023-03-28T15:11:11.092Z,100996.22
2023-03-28T15:13:39.827Z,100990.47
2023-03-28T15:16:08.185Z,100983.97
2023-03-28T15:18:46.811Z,100992.19
2023-03-28T15:21:14.020Z,100982.50
2023-03-28T15:23:47.354Z,100986.25
2023-03-28T15:27:11.679Z,100986.41
2023-03-28T15:58:51.831Z,100931.94
2023-03-28T16:06:54.126Z,100934.75
2023-03-28T16:10:00.368Z,100942.09
2023-03-28T16:12:29.784Z,100945.63
2023-03-28T16:15:31.562Z,100932.94
2023-03-28T16:18:13.590Z,100933.25
2023-03-28T16:20:56.535Z,100931.78
2023-03-28T16:23:23.554Z,100930.59
2023-03-28T16:25:50.302Z,100927.78
2023-03-28T16:28:21.409Z,100916.94
2023-03-28T16:30:48.136Z,100906.75
2023-03-28T16:33:14.953Z,100901.94
2023-03-28T16:35:41.665Z,100901.81
2023-03-28T16:38:10.854Z,100895.81
2023-03-28T16:40:45.322Z,100900.75
2023-03-28T16:43:13.189Z,100890.09
2023-03-28T16:45:39.996Z,100892.75
2023-03-28T16:48:09.962Z,100894.09
2023-03-28T16:51:13.707Z,100887.63
2023-03-28T16:53:43.430Z,100888.28
2023-03-28T16:56:15.346Z,100890.16
2023-03-28T16:58:42.695Z,100883.97
2023-03-28T17:01:34.393Z,100875.63
2023-03-28T17:04:01.331Z,100878.56
2023-03-28T17:06:28.464Z,100872.84
2023-03-28T17:08:55.355Z,100860.84
2023-03-28T17:11:31.577Z,100856.69
2023-03-28T17:13:59.130Z,100853.31
2023-03-28T17:16:26.255Z,100844.84
2023-03-28T17:19:00.515Z,100845.47
2023-03-28T17:21:27.435Z,100847.97
2023-03-28T17:23:55.390Z,100841.31
2023-03-28T17:29:03.604Z,100835.78
2023-03-28T17:31:32.091Z,100833.09
2023-03-28T17:34:02.456Z,100835.16
2023-03-28T17:36:29.797Z,100846.72
2023-03-28T17:38:58.004Z,100846.53
2023-03-28T17:41:37.818Z,100834.16
2023-03-28T17:44:16.490Z,100841.09
2023-03-28T17:46:44.586Z,100837.34
2023-03-28T17:49:14.788Z,100844.28
2023-03-28T17:52:01.396Z,100852.00
2023-03-28T17:54:53.356Z,100845.47
2023-03-28T17:57:20.811Z,100849.06
2023-03-28T17:59:47.616Z,100845.50
2023-03-28T18:02:14.461Z,100849.28
2023-03-28T18:04:47.734Z,100839.81
2023-03-28T18:07:31.583Z,100848.22
2023-03-28T18:10:01.113Z,100846.03
2023-03-28T18:12:27.940Z,100846.88
2023-03-28T18:15:02.467Z,100843.22
2023-03-28T18:17:29.609Z,100841.88
2023-03-28T18:19:56.538Z,100838.16
2023-03-28T18:22:23.363Z,100834.66
2023-03-28T18:24:50.232Z,100831.47
2023-03-28T18:27:20.930Z,100826.16
2023-03-28T18:29:47.688Z,100823.66
2023-03-28T18:32:17.269Z,100816.97
2023-03-28T18:34:52.151Z,100809.41
2023-03-28T18:37:18.869Z,100810.84
2023-03-28T18:39:46.348Z,100810.31
2023-03-28T18:42:27.073Z,100811.06
2023-03-28T18:44:54.847Z,100813.19
2023-03-28T18:47:21.622Z,100813.19
2023-03-28T18:49:54.494Z,100804.88
2023-03-28T18:52:21.853Z,100801.91
2023-03-28T18:54:49.328Z,100795.91
2023-03-28T18:57:32.709Z,100796.59
2023-03-28T19:00:15.705Z,100794.69
2023-03-28T19:02:55.163Z,100791.53
2023-03-28T19:05:22.111Z,100781.72
2023-03-28T19:07:48.894Z,100788.47
2023-03-28T19:10:25.920Z,100783.63
2023-03-28T19:12:54.280Z,100776.69
2023-03-28T19:15:21.094Z,100767.84
2023-03-28T19:17:54.860Z,100774.44
2023-03-28T19:20:21.646Z,100764.84
2023-03-28T19:22:48.477Z,100769.81
2023-03-28T19:25:24.887Z,100771.81
2023-03-28T19:27:53.700Z,100759.19
2023-03-28T19:30:20.524Z,100767.38
2023-03-28T19:32:58.021Z,100761.75
2023-03-28T19:35:24.948Z,100756.34
2023-03-28T19:37:51.776Z,100759.47
2023-03-28T19:40:28.208Z,100757.38
2023-03-28T19:42:58.549Z,100750.66
2023-03-28T19:45:25.937Z,100746.63
2023-03-28T19:48:00.008Z,100750.09
2023-03-28T19:50:27.072Z,100745.84
2023-03-28T19:52:53.804Z,100740.78
2023-03-28T19:55:29.233Z,100737.16
2023-03-28T19:57:58.285Z,100737.63
2023-03-28T20:00:25.635Z,100736.78
2023-03-28T20:03:02.945Z,100737.47
2023-03-28T20:05:29.881Z,100734.34
2023-03-28T20:07:56.596Z,100726.78
2023-03-28T20:10:32.441Z,100725.13
2023-03-28T20:12:59.185Z,100724.34
2023-03-28T20:15:25.897Z,100713.81
2023-03-28T20:17:52.573Z,100720.03
2023-03-28T20:20:28.089Z,100718.28
2023-03-28T20:22:54.837Z,100713.81
2023-03-28T20:25:21.621Z,100721.09
2023-03-28T20:27:50.342Z,100713.56
2023-03-28T20:30:20.401Z,100714.81
2023-03-28T20:32:49.576Z,100701.56
2023-03-28T20:35:16.527Z,100694.59
2023-03-28T20:37:53.480Z,100692.31
2023-03-28T20:40:21.406Z,100690.47
2023-03-28T20:42:50.236Z,100694.09
2023-03-28T20:45:23.306Z,100696.47
2023-03-28T20:47:55.860Z,100690.41
2023-03-28T20:50:23.809Z,100693.81
2023-03-28T20:52:54.548Z,100692.44
2023-03-28T20:55:21.700Z,100690.47
2023-03-28T20:57:49.141Z,100690.22
2023-03-28T21:00:25.600Z,100680.41
2023-03-28T21:02:53.677Z,100682.69
2023-03-28T21:05:22.504Z,100664.72
2023-03-28T21:08:15.598Z,100672.38
2023-03-28T21:10:42.426Z,100669.50
2023-03-28T21:13:09.193Z,100661.41
2023-03-28T21:15:36.318Z,100654.25
2023-03-28T21:18:12.447Z,100650.78
2023-03-28T21:20:39.183Z,100646.22
2023-03-28T21:23:05.894Z,100655.31
2023-03-28T21:25:41.284Z,100650.13
2023-03-28T21:28:12.523Z,100643.66
2023-03-28T21:30:40.337Z,100637.66
2023-03-28T21:33:33.406Z,100637.22
2023-03-28T21:36:07.302Z,100633.06
2023-03-28T21:38:41.270Z,100640.31
2023-03-28T21:41:11.301Z,100637.28
2023-03-28T21:43:38.760Z,100643.88
2023-03-28T21:46:12.812Z,100639.19
2023-03-28T21:48:39.727Z,100638.09
2023-03-28T21:51:13.041Z,100633.81
2023-03-28T21:53:42.453Z,100628.59
2023-03-28T21:56:11.567Z,100629.97
2023-03-28T21:58:38.480Z,100633.59
2023-03-28T22:01:30.412Z,100632.19
2023-03-28T22:03:57.164Z,100622.38
2023-03-28T22:06:24.064Z,100621.38
2023-03-28T22:08:52.958Z,100607.19
2023-03-28T22:11:30.570Z,100605.34
2023-03-28T22:14:01.524Z,100604.50
2023-03-28T22:16:40.509Z,100605.63
2023-03-28T22:19:09.894Z,100601.75
2023-03-28T22:21:44.566Z,100611.94
2023-03-28T22:24:13.329Z,100599.56
2023-03-28T22:26:41.157Z,100609.13
2023-03-28T22:29:17.459Z,100599.50
2023-03-28T22:31:44.265Z,100606.53
2023-03-28T22:34:13.145Z,100611.88
2023-03-28T22:39:41.365Z,100610.81
2023-03-28T22:42:17.559Z,100604.31
2023-03-28T22:44:44.357Z,100618.56
2023-03-28T22:47:12.116Z,100605.06
2023-03-28T22:49:45.296Z,100616.16
2023-03-28T22:52:13.048Z,100609.97
2023-03-28T22:54:48.418Z,100603.22
2023-03-28T22:57:17.975Z,100605.50
2023-03-28T22:59:44.639Z,100611.06
2023-03-28T23:02:11.739Z,100612.06
2023-03-28T23:04:47.754Z,100612.88
2023-03-28T23:07:14.479Z,100615.03
2023-03-28T23:09:44.052Z,100616.50
2023-03-28T23:12:16.926Z,100613.19
2023-03-28T23:14:43.642Z,100605.72
2023-03-28T23:17:11.147Z,100602.09
2023-03-28T23:19:37.831Z,100604.41
2023-03-28T23:22:13.280Z,100599.09
2023-03-28T23:24:40.217Z,100598.72
2023-03-28T23:27:08.799Z,100599.34
2023-03-28T23:29:36.424Z,100591.88
2023-03-28T23:32:06.657Z,100590.88
2023-03-28T23:34:33.507Z,100589.97
2023-03-28T23:37:02.312Z,100584.22
2023-03-28T23:39:38.207Z,100587.75
2023-03-28T23:42:04.991Z,100585.56
2023-03-28T23:44:31.669Z,100588.78
2023-03-28T23:47:07.470Z,100584.97
2023-03-28T23:49:34.150Z,100574.63
2023-03-28T23:52:01.441Z,100574.47
2023-03-28T23:54:37.360Z,100574.69
2023-03-28T23:57:04.611Z,100576.22
2023-03-28T23:59:31.236Z,100563.44
